createdAt,value
2023-04-23T00:00:58.070Z,0.00
2023-04-23T00:01:58.055Z,0.00
2023-04-23T00:02:58.276Z,0.00
2023-04-23T00:03:58.405Z,0.00
2023-04-23T00:04:58.249Z,0.00
2023-04-23T00:05:58.336Z,0.00
2023-04-23T00:06:58.111Z,0.00
2023-04-23T00:07:58.015Z,0.00
2023-04-23T00:08:58.061Z,0.00
2023-04-23T00:09:58.104Z,0.00
2023-04-23T00:10:57.992Z,0.00
2023-04-23T00:11:57.964Z,0.00
2023-04-23T00:12:59.241Z,0.00
2023-04-23T00:13:57.952Z,0.00
2023-04-23T00:14:57.951Z,0.00
2023-04-23T00:15:57.924Z,0.00
2023-04-23T00:16:58.087Z,0.00
2023-04-23T00:17:57.919Z,0.00
2023-04-23T00:18:57.899Z,0.00
2023-04-23T00:19:57.921Z,0.00
2023-04-23T00:20:57.842Z,0.00
2023-04-23T00:21:57.877Z,0.00
2023-04-23T00:22:57.896Z,0.00
2023-04-23T00:23:57.840Z,0.00
2023-04-23T00:24:57.808Z,0.00
2023-04-23T00:25:57.838Z,0.00
2023-04-23T00:26:57.789Z,0.00
2023-04-23T00:27:57.817Z,0.00
2023-04-23T00:28:57.883Z,0.00
2023-04-23T00:29:57.743Z,0.00
2023-04-23T00:30:57.740Z,0.00
2023-04-23T00:31:57.759Z,0.00
2023-04-23T00:32:57.773Z,0.00
2023-04-23T00:33:57.696Z,0.00
2023-04-23T00:34:57.746Z,0.00
2023-04-23T00:35:57.691Z,0.00
2023-04-23T00:36:57.674Z,0.00
2023-04-23T00:37:57.692Z,0.00
2023-04-23T00:38:57.682Z,0.00
2023-04-23T00:39:57.690Z,0.00
2023-04-23T00:40:57.646Z,0.00
2023-04-23T00:41:57.789Z,0.00
2023-04-23T00:42:57.628Z,0.00
2023-04-23T00:43:57.600Z,0.00
2023-04-23T00:44:57.634Z,0.00
2023-04-23T00:45:57.736Z,0.00
2023-04-23T00:46:57.587Z,0.00
2023-04-23T00:47:57.714Z,0.00
2023-04-23T00:48:57.550Z,0.00
2023-04-23T00:49:57.563Z,0.00
2023-04-23T00:50:57.551Z,0.00
2023-04-23T00:51:57.547Z,0.00
2023-04-23T00:52:57.539Z,0.00
2023-04-23T00:53:57.482Z,0.00
2023-04-23T00:54:57.476Z,0.00
2023-04-23T00:55:57.493Z,0.00
2023-04-23T00:56:57.448Z,0.00
2023-04-23T00:57:57.435Z,0.00
2023-04-23T00:58:57.430Z,0.00
2023-04-23T00:59:57.497Z,0.00
2023-04-23T01:00:57.530Z,0.00
2023-04-23T01:01:57.444Z,0.00
2023-04-23T01:02:57.501Z,0.00
2023-04-23T01:03:57.561Z,0.00
2023-04-23T01:04:57.368Z,0.00
2023-04-23T01:05:57.399Z,0.00
2023-04-23T01:06:57.421Z,0.00
2023-04-23T01:07:57.361Z,0.00
2023-04-23T01:08:57.323Z,0.00
2023-04-23T01:09:57.339Z,0.00
2023-04-23T01:10:57.307Z,0.00
2023-04-23T01:11:57.295Z,0.00
2023-04-23T01:12:57.335Z,0.00
2023-04-23T01:13:57.269Z,0.00
2023-04-23T01:14:57.250Z,0.00
2023-04-23T01:15:57.317Z,0.00
2023-04-23T01:16:57.294Z,0.00
2023-04-23T01:17:57.292Z,0.00
2023-04-23T01:18:57.260Z,0.00
2023-04-23T01:19:57.252Z,0.00
2023-04-23T01:20:57.188Z,0.00
2023-04-23T01:21:57.173Z,0.00
2023-04-23T01:22:57.182Z,0.00
2023-04-23T01:23:57.192Z,0.00
2023-04-23T01:24:57.179Z,0.00
2023-04-23T01:25:57.166Z,0.00
2023-04-23T01:26:57.162Z,0.00
2023-04-23T01:27:57.135Z,0.00
2023-04-23T01:28:57.107Z,0.00
2023-04-23T01:29:57.087Z,0.00
2023-04-23T01:30:57.135Z,0.00
2023-04-23T01:31:57.098Z,0.00
2023-04-23T01:32:57.124Z,0.00
2023-04-23T01:33:57.054Z,0.00
2023-04-23T01:34:57.057Z,0.00
2023-04-23T01:35:57.018Z,0.00
2023-04-23T01:36:57.119Z,0.00
2023-04-23T01:37:57.076Z,0.00
2023-04-23T01:38:56.980Z,0.00
2023-04-23T01:39:56.993Z,0.00
2023-04-23T01:40:56.998Z,0.00
2023-04-23T01:41:56.955Z,0.00
2023-04-23T01:42:56.999Z,0.00
2023-04-23T01:43:56.955Z,0.00
2023-04-23T01:44:56.942Z,0.00
2023-04-23T01:45:56.964Z,0.00
2023-04-23T01:46:56.934Z,0.00
2023-04-23T01:47:57.024Z,0.00
2023-04-23T01:48:56.961Z,0.00
2023-04-23T01:49:56.860Z,0.00
2023-04-23T01:50:56.846Z,0.00
2023-04-23T01:51:56.841Z,0.00
2023-04-23T01:52:56.867Z,0.00
2023-04-23T01:53:56.814Z,0.00
2023-04-23T01:54:56.888Z,0.00
2023-04-23T01:55:56.853Z,0.00
2023-04-23T01:56:56.831Z,0.00
2023-04-23T01:57:56.787Z,0.00
2023-04-23T01:58:56.768Z,0.00
2023-04-23T01:59:56.751Z,0.00
2023-04-23T02:00:56.826Z,0.00
2023-04-23T02:01:56.750Z,0.00
2023-04-23T02:02:56.888Z,0.00
2023-04-23T02:03:56.777Z,0.00
2023-04-23T02:04:56.690Z,0.00
2023-04-23T02:05:56.706Z,0.00
2023-04-23T02:06:56.830Z,0.00
2023-04-23T02:07:56.701Z,0.00
2023-04-23T02:08:56.677Z,0.00
2023-04-23T02:09:56.645Z,0.00
2023-04-23T02:10:56.630Z,0.00
2023-04-23T02:11:56.658Z,0.00
2023-04-23T02:12:56.658Z,0.00
2023-04-23T02:13:56.628Z,0.00
2023-04-23T02:14:56.590Z,0.00
2023-04-23T02:15:56.648Z,0.00
2023-04-23T02:16:56.582Z,0.00
2023-04-23T02:17:56.651Z,0.00
2023-04-23T02:18:56.609Z,0.00
2023-04-23T02:19:56.551Z,0.00
2023-04-23T02:20:56.540Z,0.00
2023-04-23T02:21:56.546Z,0.00
2023-04-23T02:22:56.511Z,0.00
2023-04-23T02:23:56.646Z,0.00
2023-04-23T02:24:56.491Z,0.00
2023-04-23T02:25:56.488Z,0.00
2023-04-23T02:26:56.474Z,0.00
2023-04-23T02:27:56.485Z,0.00
2023-04-23T02:28:56.491Z,0.00
2023-04-23T02:29:56.424Z,0.00
2023-04-23T02:30:56.447Z,0.00
2023-04-23T02:31:56.531Z,0.00
2023-04-23T02:32:56.425Z,0.00
2023-04-23T02:33:56.485Z,0.00
2023-04-23T02:34:56.384Z,0.00
2023-04-23T02:35:56.376Z,0.00
2023-04-23T02:36:56.355Z,0.00
2023-04-23T02:37:56.379Z,0.00
2023-04-23T02:38:56.346Z,0.00
2023-04-23T02:39:56.432Z,0.00
2023-04-23T02:40:56.318Z,0.00
2023-04-23T02:41:56.314Z,0.00
2023-04-23T02:42:56.279Z,0.00
2023-04-23T02:43:56.309Z,0.00
2023-04-23T02:44:56.290Z,0.00
2023-04-23T02:45:56.341Z,0.00
2023-04-23T02:46:56.443Z,0.00
2023-04-23T02:47:56.295Z,0.00
2023-04-23T02:48:56.254Z,0.00
2023-04-23T02:49:56.271Z,0.00
2023-04-23T02:50:56.242Z,0.00
2023-04-23T02:51:56.272Z,0.00
2023-04-23T02:52:56.176Z,0.00
2023-04-23T02:53:56.159Z,0.00
2023-04-23T02:54:56.196Z,0.00
2023-04-23T02:55:56.163Z,0.00
2023-04-23T02:56:56.165Z,0.00
2023-04-23T02:57:56.179Z,0.00
2023-04-23T02:58:56.104Z,0.00
2023-04-23T02:59:56.133Z,0.00
2023-04-23T03:00:56.184Z,0.00
2023-04-23T03:01:56.131Z,0.00
2023-04-23T03:02:56.177Z,0.00
2023-04-23T03:03:56.220Z,0.00
2023-04-23T03:04:56.108Z,0.00
2023-04-23T03:05:56.044Z,0.00
2023-04-23T03:06:56.030Z,0.00
2023-04-23T03:07:56.011Z,0.00
2023-04-23T03:08:56.022Z,0.00
2023-04-23T03:09:56.011Z,0.00
2023-04-23T03:10:56.018Z,0.00
2023-04-23T03:11:56.057Z,0.00
2023-04-23T03:12:56.001Z,0.00
2023-04-23T03:13:55.945Z,0.00
2023-04-23T03:14:55.938Z,0.00
2023-04-23T03:15:55.936Z,0.00
2023-04-23T03:16:56.042Z,0.00
2023-04-23T03:17:55.933Z,0.00
2023-04-23T03:18:55.894Z,0.00
2023-04-23T03:19:55.882Z,0.00
2023-04-23T03:20:55.880Z,0.00
2023-04-23T03:21:55.873Z,0.00
2023-04-23T03:22:55.891Z,0.00
2023-04-23T03:23:55.830Z,0.00
2023-04-23T03:24:55.853Z,0.00
2023-04-23T03:25:55.842Z,0.00
2023-04-23T03:26:55.802Z,0.00
2023-04-23T03:27:55.809Z,0.00
2023-04-23T03:28:55.827Z,0.00
2023-04-23T03:29:55.794Z,0.00
2023-04-23T03:30:55.781Z,0.00
2023-04-23T03:31:55.767Z,0.00
2023-04-23T03:32:55.851Z,0.00
2023-04-23T03:33:55.749Z,0.00
2023-04-23T03:34:55.762Z,0.00
2023-04-23T03:35:55.719Z,0.00
2023-04-23T03:36:55.685Z,0.00
2023-04-23T03:37:55.722Z,0.00
2023-04-23T03:38:55.676Z,0.00
2023-04-23T03:39:55.663Z,0.00
2023-04-23T03:40:55.773Z,0.00
2023-04-23T03:41:55.711Z,0.00
2023-04-23T03:42:55.634Z,0.00
2023-04-23T03:43:55.621Z,0.00
2023-04-23T03:44:55.600Z,0.00
2023-04-23T03:45:55.607Z,0.00
2023-04-23T03:47:03.185Z,0.00
2023-04-23T03:47:55.580Z,0.00
2023-04-23T03:48:55.554Z,0.00
2023-04-23T03:49:55.562Z,0.00
2023-04-23T03:50:55.549Z,0.00
2023-04-23T03:51:55.550Z,0.00
2023-04-23T03:52:55.528Z,0.00
2023-04-23T03:53:55.508Z,0.00
2023-04-23T03:54:55.533Z,0.00
2023-04-23T03:55:55.500Z,0.00
2023-04-23T03:56:55.469Z,0.00
2023-04-23T03:57:55.465Z,0.00
2023-04-23T03:58:55.478Z,0.00
2023-04-23T03:59:55.442Z,0.00
2023-04-23T04:00:55.435Z,0.00
2023-04-23T04:01:55.443Z,0.00
2023-04-23T04:02:55.563Z,0.00
2023-04-23T04:03:55.567Z,0.00
2023-04-23T04:04:55.547Z,0.00
2023-04-23T04:05:55.414Z,0.00
2023-04-23T04:06:55.369Z,0.00
2023-04-23T04:07:55.366Z,4.00
2023-04-23T04:08:55.358Z,0.00
2023-04-23T04:09:55.335Z,0.00
2023-04-23T04:10:55.313Z,0.00
2023-04-23T04:11:55.305Z,4.00
2023-04-23T04:12:55.359Z,4.00
2023-04-23T04:13:55.285Z,0.00
2023-04-23T04:14:55.302Z,4.00
2023-04-23T04:15:55.300Z,4.00
2023-04-23T04:16:55.255Z,4.00
2023-04-23T04:17:55.279Z,4.00
2023-04-23T04:18:56.665Z,4.00
2023-04-23T04:19:55.223Z,4.00
2023-04-23T04:20:55.215Z,8.00
2023-04-23T04:21:55.200Z,4.00
2023-04-23T04:22:55.183Z,8.00
2023-04-23T04:23:55.189Z,4.00
2023-04-23T04:24:55.195Z,8.00
2023-04-23T04:25:55.183Z,8.00
2023-04-23T04:26:55.153Z,8.00
2023-04-23T04:27:55.132Z,8.00
2023-04-23T04:28:55.141Z,12.00
2023-04-23T04:29:55.125Z,12.00
2023-04-23T04:30:55.144Z,12.00
2023-04-23T04:31:55.139Z,16.00
2023-04-23T04:32:55.109Z,12.00
2023-04-23T04:33:55.078Z,16.00
2023-04-23T04:34:55.080Z,20.00
2023-04-23T04:35:55.065Z,20.00
2023-04-23T04:36:55.071Z,20.00
2023-04-23T04:37:55.027Z,24.00
2023-04-23T04:38:55.008Z,28.00
2023-04-23T04:39:55.000Z,32.00
2023-04-23T04:40:54.991Z,36.00
2023-04-23T04:41:54.988Z,36.00
2023-04-23T04:42:55.027Z,40.00
2023-04-23T04:43:54.987Z,44.00
2023-04-23T04:44:54.954Z,52.00
2023-04-23T04:45:54.932Z,56.00
2023-04-23T04:46:54.953Z,60.00
2023-04-23T04:47:54.986Z,64.00
2023-04-23T04:48:54.903Z,72.00
2023-04-23T04:49:54.907Z,76.00
2023-04-23T04:50:54.889Z,84.00
2023-04-23T04:51:54.866Z,84.00
2023-04-23T04:52:54.865Z,92.00
2023-04-23T04:53:54.856Z,96.00
2023-04-23T04:54:54.842Z,100.00
2023-04-23T04:55:54.867Z,104.00
2023-04-23T04:56:54.816Z,104.00
2023-04-23T04:57:54.805Z,116.00
2023-04-23T04:58:54.794Z,124.00
2023-04-23T04:59:54.795Z,136.00
2023-04-23T05:00:54.882Z,148.00
2023-04-23T05:01:54.858Z,156.00
2023-04-23T05:02:54.876Z,168.00
2023-04-23T05:03:54.891Z,184.00
2023-04-23T05:04:54.742Z,192.00
2023-04-23T05:05:54.733Z,196.00
2023-04-23T05:06:54.732Z,196.00
2023-04-23T05:07:54.708Z,200.00
2023-04-23T05:08:54.698Z,196.00
2023-04-23T05:09:54.700Z,200.00
2023-04-23T05:10:54.677Z,204.00
2023-04-23T05:11:54.658Z,204.00
2023-04-23T05:12:54.638Z,204.00
2023-04-23T05:13:54.620Z,204.00
2023-04-23T05:14:54.634Z,200.00
2023-04-23T05:15:54.640Z,200.00
2023-04-23T05:16:54.714Z,196.00
2023-04-23T05:17:54.612Z,192.00
2023-04-23T05:18:54.575Z,196.00
2023-04-23T05:19:54.587Z,188.00
2023-04-23T05:20:54.553Z,180.00
2023-04-23T05:21:54.563Z,152.00
2023-04-23T05:22:54.542Z,152.00
2023-04-23T05:23:54.535Z,156.00
2023-04-23T05:24:54.515Z,160.00
2023-04-23T05:25:54.549Z,184.00
2023-04-23T05:26:54.489Z,180.00
2023-04-23T05:27:54.503Z,160.00
2023-04-23T05:28:54.463Z,152.00
2023-04-23T05:29:54.450Z,140.00
2023-04-23T05:30:54.444Z,144.00
2023-04-23T05:31:54.442Z,144.00
2023-04-23T05:32:54.471Z,144.00
2023-04-23T05:33:54.430Z,144.00
2023-04-23T05:34:54.420Z,144.00
2023-04-23T05:35:54.385Z,148.00
2023-04-23T05:36:54.404Z,148.00
2023-04-23T05:37:54.361Z,148.00
2023-04-23T05:38:54.370Z,152.00
2023-04-23T05:39:54.361Z,160.00
2023-04-23T05:40:54.376Z,168.00
2023-04-23T05:41:54.328Z,172.00
2023-04-23T05:42:54.324Z,180.00
2023-04-23T05:43:54.299Z,188.00
2023-04-23T05:44:54.282Z,196.00
2023-04-23T05:45:54.282Z,208.00
2023-04-23T05:46:54.312Z,224.00
2023-04-23T05:47:54.294Z,244.00
2023-04-23T05:48:54.235Z,252.00
2023-04-23T05:49:54.236Z,252.00
2023-04-23T05:50:54.251Z,256.00
2023-04-23T05:51:54.207Z,260.00
2023-04-23T05:52:54.211Z,280.00
2023-04-23T05:53:54.183Z,292.00
2023-04-23T05:54:54.188Z,312.00
2023-04-23T05:55:54.151Z,324.00
2023-04-23T05:56:54.778Z,336.00
2023-04-23T05:57:54.148Z,348.00
2023-04-23T05:58:54.144Z,360.00
2023-04-23T05:59:54.109Z,372.00
2023-04-23T06:00:54.108Z,380.00
2023-04-23T06:01:54.086Z,376.00
2023-04-23T06:02:54.171Z,360.00
2023-04-23T06:03:54.419Z,344.00
2023-04-23T06:04:54.343Z,336.00
2023-04-23T06:05:54.159Z,320.00
2023-04-23T06:06:54.031Z,312.00
2023-04-23T06:07:54.027Z,308.00
2023-04-23T06:08:54.008Z,296.00
2023-04-23T06:09:54.016Z,288.00
2023-04-23T06:10:54.126Z,280.00
2023-04-23T06:11:53.978Z,280.00
2023-04-23T06:12:53.964Z,276.00
2023-04-23T06:13:53.959Z,272.00
2023-04-23T06:14:53.971Z,276.00
2023-04-23T06:15:53.965Z,280.00
2023-04-23T06:16:53.979Z,276.00
2023-04-23T06:17:53.939Z,272.00
2023-04-23T06:18:53.898Z,268.00
2023-04-23T06:19:53.908Z,260.00
2023-04-23T06:20:53.911Z,252.00
2023-04-23T06:21:53.866Z,248.00
2023-04-23T06:22:53.883Z,248.00
2023-04-23T06:23:53.838Z,244.00
2023-04-23T06:24:53.848Z,240.00
2023-04-23T06:25:53.818Z,240.00
2023-04-23T06:26:53.838Z,236.00
2023-04-23T06:27:53.799Z,232.00
2023-04-23T06:28:53.820Z,228.00
2023-04-23T06:29:53.780Z,220.00
2023-04-23T06:30:53.766Z,212.00
2023-04-23T06:31:53.848Z,204.00
2023-04-23T06:32:53.805Z,200.00
2023-04-23T06:33:53.728Z,192.00
2023-04-23T06:35:01.039Z,188.00
2023-04-23T06:35:53.713Z,184.00
2023-04-23T06:36:53.723Z,180.00
2023-04-23T06:37:53.683Z,176.00
2023-04-23T06:38:53.692Z,168.00
2023-04-23T06:39:53.665Z,168.00
2023-04-23T06:40:53.691Z,160.00
2023-04-23T06:41:53.653Z,160.00
2023-04-23T06:42:53.650Z,152.00
2023-04-23T06:43:53.635Z,148.00
2023-04-23T06:44:53.604Z,144.00
2023-04-23T06:45:53.591Z,140.00
2023-04-23T06:46:53.684Z,140.00
2023-04-23T06:47:53.609Z,140.00
2023-04-23T06:48:53.564Z,144.00
2023-04-23T06:49:53.636Z,148.00
2023-04-23T06:50:53.541Z,152.00
2023-04-23T06:51:54.254Z,156.00
2023-04-23T06:52:53.572Z,164.00
2023-04-23T06:53:53.505Z,176.00
2023-04-23T06:54:53.572Z,180.00
2023-04-23T06:55:53.501Z,184.00
2023-04-23T06:56:53.478Z,192.00
2023-04-23T06:57:53.462Z,212.00
2023-04-23T06:58:53.485Z,220.00
2023-04-23T06:59:53.458Z,236.00
2023-04-23T07:00:53.467Z,248.00
2023-04-23T07:01:53.416Z,272.00
2023-04-23T07:02:53.520Z,296.00
2023-04-23T07:03:53.459Z,328.00
2023-04-23T07:04:53.438Z,360.00
2023-04-23T07:05:53.382Z,392.00
2023-04-23T07:06:53.377Z,412.00
2023-04-23T07:07:53.405Z,428.00
2023-04-23T07:08:53.364Z,452.00
2023-04-23T07:09:53.346Z,500.00
2023-04-23T07:10:53.400Z,452.00
2023-04-23T07:11:53.343Z,464.00
2023-04-23T07:12:53.315Z,480.00
2023-04-23T07:13:53.300Z,504.00
2023-04-23T07:14:53.330Z,524.00
2023-04-23T07:15:53.282Z,560.00
2023-04-23T07:16:53.352Z,628.00
2023-04-23T07:17:53.278Z,668.00
2023-04-23T07:18:53.270Z,708.00
2023-04-23T07:19:53.253Z,792.00
2023-04-23T07:20:53.243Z,908.00
2023-04-23T07:21:53.225Z,952.00
2023-04-23T07:22:53.235Z,1000.00
2023-04-23T07:23:53.225Z,964.00
2023-04-23T07:24:53.288Z,1264.00
2023-04-23T07:25:53.187Z,3116.00
2023-04-23T07:26:53.182Z,3052.00
2023-04-23T07:27:53.155Z,1908.00
2023-04-23T07:28:53.202Z,2628.00
2023-04-23T07:29:53.156Z,1728.00
2023-04-23T07:30:53.149Z,3028.00
2023-04-23T07:31:53.133Z,3000.00
2023-04-23T07:32:53.216Z,2996.00
2023-04-23T07:33:53.096Z,1520.00
2023-04-23T07:34:53.360Z,2936.00
2023-04-23T07:35:53.077Z,2908.00
2023-04-23T07:36:53.057Z,2924.00
2023-04-23T07:37:53.073Z,2960.00
2023-04-23T07:38:53.065Z,2976.00
2023-04-23T07:39:53.026Z,3012.00
2023-04-23T07:40:53.035Z,3064.00
2023-04-23T07:41:53.004Z,2548.00
2023-04-23T07:42:53.021Z,2224.00
2023-04-23T07:43:52.985Z,1780.00
2023-04-23T07:44:52.977Z,1388.00
2023-04-23T07:45:52.975Z,1588.00
2023-04-23T07:46:52.986Z,2456.00
2023-04-23T07:47:53.145Z,1940.00
2023-04-23T07:48:52.922Z,1500.00
2023-04-23T07:49:52.923Z,2928.00
2023-04-23T07:50:52.916Z,1300.00
2023-04-23T07:51:52.889Z,1720.00
2023-04-23T07:52:52.939Z,3316.00
2023-04-23T07:53:52.915Z,1896.00
2023-04-23T07:54:52.887Z,3204.00
2023-04-23T07:55:52.871Z,2808.00
2023-04-23T07:56:52.842Z,2668.00
2023-04-23T07:57:52.826Z,2492.00
2023-04-23T07:58:52.862Z,1888.00
2023-04-23T07:59:52.852Z,3180.00
2023-04-23T08:00:52.798Z,1028.00
2023-04-23T08:01:52.829Z,980.00
2023-04-23T08:02:52.878Z,976.00
2023-04-23T08:03:52.991Z,780.00
2023-04-23T08:04:52.982Z,724.00
2023-04-23T08:05:52.742Z,560.00
2023-04-23T08:06:52.732Z,652.00
2023-04-23T08:07:52.746Z,692.00
2023-04-23T08:08:52.726Z,636.00
2023-04-23T08:09:52.698Z,1156.00
2023-04-23T08:10:52.714Z,1016.00
2023-04-23T08:11:52.698Z,788.00
2023-04-23T08:12:52.663Z,804.00
2023-04-23T08:13:52.646Z,820.00
2023-04-23T08:14:52.651Z,840.00
2023-04-23T08:15:52.686Z,844.00
2023-04-23T08:16:52.669Z,796.00
2023-04-23T08:17:52.698Z,744.00
2023-04-23T08:19:04.252Z,676.00
2023-04-23T08:19:53.599Z,744.00
2023-04-23T08:20:52.578Z,732.00
2023-04-23T08:21:52.563Z,736.00
2023-04-23T08:22:52.576Z,752.00
2023-04-23T08:23:52.539Z,696.00
2023-04-23T08:24:52.545Z,660.00
2023-04-23T08:25:52.519Z,660.00
2023-04-23T08:26:52.500Z,728.00
2023-04-23T08:27:52.551Z,692.00
2023-04-23T08:28:52.482Z,680.00
2023-04-23T08:29:52.475Z,728.00
2023-04-23T08:30:52.473Z,728.00
2023-04-23T08:31:52.475Z,724.00
2023-04-23T08:32:52.465Z,712.00
2023-04-23T08:33:52.467Z,676.00
2023-04-23T08:34:52.429Z,644.00
2023-04-23T08:35:52.399Z,648.00
2023-04-23T08:36:52.396Z,676.00
2023-04-23T08:37:52.388Z,720.00
2023-04-23T08:38:52.369Z,752.00
2023-04-23T08:39:53.266Z,756.00
2023-04-23T08:40:52.352Z,752.00
2023-04-23T08:41:52.376Z,768.00
2023-04-23T08:42:52.324Z,800.00
2023-04-23T08:43:52.322Z,816.00
2023-04-23T08:44:52.312Z,812.00
2023-04-23T08:45:52.327Z,808.00
2023-04-23T08:46:52.310Z,800.00
2023-04-23T08:47:52.315Z,824.00
2023-04-23T08:48:52.283Z,888.00
2023-04-23T08:49:52.275Z,1088.00
2023-04-23T08:50:52.252Z,1052.00
2023-04-23T08:51:52.284Z,1116.00
2023-04-23T08:52:52.229Z,1164.00
2023-04-23T08:53:52.213Z,1376.00
2023-04-23T08:54:52.192Z,2088.00
2023-04-23T08:55:52.226Z,2544.00
2023-04-23T08:56:52.184Z,1972.00
2023-04-23T08:57:52.247Z,2124.00
2023-04-23T08:58:52.165Z,1792.00
2023-04-23T08:59:52.133Z,1800.00
2023-04-23T09:00:52.213Z,1964.00
2023-04-23T09:01:52.141Z,1456.00
2023-04-23T09:02:52.217Z,1600.00
2023-04-23T09:03:52.183Z,1324.00
2023-04-23T09:04:52.942Z,1304.00
2023-04-23T09:05:52.085Z,1384.00
2023-04-23T09:06:52.097Z,1624.00
2023-04-23T09:07:52.070Z,1748.00
2023-04-23T09:08:52.035Z,1400.00
2023-04-23T09:09:52.062Z,1264.00
2023-04-23T09:10:52.030Z,1516.00
2023-04-23T09:11:54.645Z,1328.00
2023-04-23T09:12:52.009Z,1352.00
2023-04-23T09:13:51.999Z,1552.00
2023-04-23T09:14:51.973Z,2020.00
2023-04-23T09:15:51.993Z,1656.00
2023-04-23T09:16:52.025Z,1104.00
2023-04-23T09:17:52.023Z,976.00
2023-04-23T09:18:51.967Z,756.00
2023-04-23T09:19:51.946Z,660.00
2023-04-23T09:20:51.921Z,620.00
2023-04-23T09:21:51.955Z,640.00
2023-04-23T09:22:52.019Z,656.00
2023-04-23T09:23:51.918Z,640.00
2023-04-23T09:24:51.873Z,624.00
2023-04-23T09:25:51.861Z,652.00
2023-04-23T09:26:51.870Z,692.00
2023-04-23T09:27:51.900Z,720.00
2023-04-23T09:28:51.832Z,720.00
2023-04-23T09:29:51.824Z,668.00
2023-04-23T09:30:51.810Z,568.00
2023-04-23T09:31:51.854Z,496.00
2023-04-23T09:32:51.786Z,464.00
2023-04-23T09:33:51.830Z,464.00
2023-04-23T09:34:51.768Z,496.00
2023-04-23T09:35:51.767Z,580.00
2023-04-23T09:36:51.770Z,688.00
2023-04-23T09:37:51.727Z,724.00
2023-04-23T09:38:51.749Z,772.00
2023-04-23T09:39:51.756Z,888.00
2023-04-23T09:40:51.694Z,1168.00
2023-04-23T09:41:51.685Z,3336.00
2023-04-23T09:42:51.676Z,3180.00
2023-04-23T09:43:51.685Z,2432.00
2023-04-23T09:44:51.657Z,2356.00
2023-04-23T09:45:51.712Z,1712.00
2023-04-23T09:46:59.626Z,1604.00
2023-04-23T09:47:51.657Z,2320.00
2023-04-23T09:48:51.633Z,2720.00
2023-04-23T09:49:51.642Z,2872.00
2023-04-23T09:50:51.598Z,3448.00
2023-04-23T09:51:51.633Z,3516.00
2023-04-23T09:52:51.596Z,2916.00
2023-04-23T09:53:51.563Z,3432.00
2023-04-23T09:54:51.560Z,3540.00
2023-04-23T09:55:51.555Z,2724.00
2023-04-23T09:56:51.554Z,2120.00
2023-04-23T09:57:51.517Z,928.00
2023-04-23T09:58:51.522Z,1564.00
2023-04-23T10:00:00.208Z,1244.00
2023-04-23T10:00:52.539Z,1100.00
2023-04-23T10:01:51.476Z,3484.00
2023-04-23T10:02:51.651Z,3500.00
2023-04-23T10:03:51.591Z,3576.00
2023-04-23T10:04:51.555Z,3124.00
2023-04-23T10:06:01.320Z,3000.00
2023-04-23T10:07:13.118Z,1228.00
2023-04-23T10:07:52.422Z,1112.00
2023-04-23T10:08:51.435Z,956.00
2023-04-23T10:09:51.390Z,1496.00
2023-04-23T10:11:05.947Z,1772.00
2023-04-23T10:11:52.840Z,2124.00
2023-04-23T10:12:55.174Z,1180.00
2023-04-23T10:13:51.347Z,1184.00
2023-04-23T10:14:51.337Z,1296.00
2023-04-23T10:15:51.400Z,1896.00
2023-04-23T10:16:51.359Z,1600.00
2023-04-23T10:17:51.528Z,1368.00
2023-04-23T10:18:51.324Z,1480.00
2023-04-23T10:19:51.283Z,1988.00
2023-04-23T10:20:51.268Z,2308.00
2023-04-23T10:21:54.921Z,2360.00
2023-04-23T10:22:52.257Z,2344.00
2023-04-23T10:23:51.233Z,2020.00
2023-04-23T10:24:51.233Z,1804.00
2023-04-23T10:25:51.232Z,1256.00
2023-04-23T10:26:51.221Z,1096.00
2023-04-23T10:27:53.987Z,1080.00
2023-04-23T10:28:51.204Z,984.00
2023-04-23T10:29:51.177Z,852.00
2023-04-23T10:30:51.172Z,900.00
2023-04-23T10:31:51.180Z,1120.00
2023-04-23T10:32:51.259Z,1272.00
2023-04-23T10:33:58.655Z,1092.00
2023-04-23T10:34:51.110Z,956.00
2023-04-23T10:35:51.125Z,884.00
2023-04-23T10:36:51.108Z,844.00
2023-04-23T10:37:51.118Z,812.00
2023-04-23T10:38:57.888Z,800.00
2023-04-23T10:39:52.068Z,796.00
2023-04-23T10:40:51.062Z,804.00
2023-04-23T10:41:51.047Z,812.00
2023-04-23T10:42:51.051Z,832.00
2023-04-23T10:43:51.023Z,848.00
2023-04-23T10:45:00.918Z,860.00
2023-04-23T10:45:51.991Z,876.00
2023-04-23T10:46:51.007Z,884.00
2023-04-23T10:47:51.032Z,888.00
2023-04-23T10:48:50.979Z,896.00
2023-04-23T10:49:50.952Z,920.00
2023-04-23T10:51:06.967Z,960.00
2023-04-23T10:52:50.922Z,1008.00
2023-04-23T10:53:50.989Z,1124.00
2023-04-23T10:54:50.899Z,1236.00
2023-04-23T10:55:50.911Z,1224.00
2023-04-23T10:56:50.870Z,1180.00
2023-04-23T10:57:50.871Z,1108.00
2023-04-23T10:58:50.861Z,996.00
2023-04-23T10:59:51.767Z,932.00
2023-04-23T11:00:50.853Z,884.00
2023-04-23T11:01:50.871Z,840.00
2023-04-23T11:02:50.955Z,820.00
2023-04-23T11:03:50.882Z,812.00
2023-04-23T11:04:50.812Z,828.00
2023-04-23T11:05:50.778Z,908.00
2023-04-23T11:06:50.766Z,972.00
2023-04-23T11:07:50.831Z,1032.00
2023-04-23T11:08:51.430Z,1068.00
2023-04-23T11:09:50.732Z,1244.00
2023-04-23T11:10:50.716Z,1276.00
2023-04-23T11:11:50.717Z,1316.00
2023-04-23T11:12:50.721Z,1336.00
2023-04-23T11:13:50.699Z,1388.00
2023-04-23T11:14:50.717Z,1528.00
2023-04-23T11:15:50.678Z,1656.00
2023-04-23T11:16:50.715Z,1572.00
2023-04-23T11:17:50.651Z,1448.00
2023-04-23T11:18:50.625Z,1252.00
2023-04-23T11:19:50.620Z,1156.00
2023-04-23T11:20:50.616Z,1188.00
2023-04-23T11:21:50.608Z,1212.00
2023-04-23T11:22:50.601Z,1284.00
2023-04-23T11:23:50.575Z,1248.00
2023-04-23T11:24:51.107Z,1152.00
2023-04-23T11:25:50.596Z,1128.00
2023-04-23T11:26:50.561Z,1168.00
2023-04-23T11:27:50.538Z,1240.00
2023-04-23T11:28:50.545Z,1292.00
2023-04-23T11:29:50.570Z,1500.00
2023-04-23T11:30:51.245Z,1452.00
2023-04-23T11:32:01.831Z,1432.00
2023-04-23T11:32:51.710Z,1200.00
2023-04-23T11:33:50.454Z,1152.00
2023-04-23T11:34:50.508Z,1212.00
2023-04-23T11:35:50.480Z,1432.00
2023-04-23T11:36:50.452Z,1564.00
2023-04-23T11:37:50.432Z,1544.00
2023-04-23T11:38:50.416Z,1380.00
2023-04-23T11:39:50.406Z,1264.00
2023-04-23T11:40:50.387Z,932.00
2023-04-23T11:41:50.408Z,836.00
2023-04-23T11:42:50.380Z,780.00
2023-04-23T11:43:50.351Z,748.00
2023-04-23T11:44:50.367Z,756.00
2023-04-23T11:45:50.376Z,1084.00
2023-04-23T11:46:50.324Z,944.00
2023-04-23T11:47:50.329Z,1396.00
2023-04-23T11:48:50.293Z,836.00
2023-04-23T11:49:50.278Z,812.00
2023-04-23T11:50:50.295Z,808.00
2023-04-23T11:51:50.295Z,1132.00
2023-04-23T11:52:50.243Z,1336.00
2023-04-23T11:53:50.294Z,1628.00
2023-04-23T11:54:50.262Z,1760.00
2023-04-23T11:55:50.230Z,1300.00
2023-04-23T11:56:50.230Z,1020.00
2023-04-23T11:57:50.192Z,1292.00
2023-04-23T11:58:50.209Z,888.00
2023-04-23T11:59:50.217Z,856.00
2023-04-23T12:00:50.159Z,796.00
2023-04-23T12:01:50.159Z,744.00
2023-04-23T12:02:50.265Z,764.00
2023-04-23T12:03:50.337Z,796.00
2023-04-23T12:04:50.116Z,1044.00
2023-04-23T12:05:50.101Z,828.00
2023-04-23T12:06:50.096Z,964.00
2023-04-23T12:07:50.134Z,828.00
2023-04-23T12:08:50.088Z,772.00
2023-04-23T12:09:50.049Z,752.00
2023-04-23T12:10:50.079Z,792.00
2023-04-23T12:11:50.027Z,812.00
2023-04-23T12:12:50.036Z,808.00
2023-04-23T12:13:50.020Z,1044.00
2023-04-23T12:14:49.993Z,1512.00
2023-04-23T12:15:50.126Z,860.00
2023-04-23T12:16:50.001Z,816.00
2023-04-23T12:17:49.986Z,932.00
2023-04-23T12:18:49.970Z,1456.00
2023-04-23T12:19:49.948Z,1000.00
2023-04-23T12:20:49.931Z,1992.00
2023-04-23T12:21:49.937Z,1132.00
2023-04-23T12:22:49.934Z,1856.00
2023-04-23T12:23:49.913Z,1076.00
2023-04-23T12:24:49.921Z,868.00
2023-04-23T12:25:49.888Z,804.00
2023-04-23T12:26:49.922Z,776.00
2023-04-23T12:27:49.854Z,828.00
2023-04-23T12:28:50.021Z,1148.00
2023-04-23T12:29:49.851Z,1948.00
2023-04-23T12:30:49.830Z,2088.00
2023-04-23T12:31:49.881Z,1956.00
2023-04-23T12:32:49.848Z,1848.00
2023-04-23T12:33:49.801Z,1816.00
2023-04-23T12:34:49.832Z,944.00
2023-04-23T12:35:49.774Z,760.00
2023-04-23T12:36:49.757Z,824.00
2023-04-23T12:37:49.752Z,828.00
2023-04-23T12:38:49.806Z,948.00
2023-04-23T12:39:49.738Z,2024.00
2023-04-23T12:40:49.735Z,1904.00
2023-04-23T12:41:49.703Z,1936.00